Time;durP1;ratioP1;P1;durP2;ratioP2;P2;SDS_P1;SDS_P2;PMS_P1;PMS_P2;Temp;Humidity;BMP_temperature;BMP_pressure;BME280_temperature;BME280_humidity;BME280_pressure;Samples;Min_cycle;Max_cycle;Signal;HPM_P1;HPM_P2
2022/09/14 00:02:11;;;;;;;5.87;3.27;;;;;;;;;;1721013;81;21068;-61
2022/09/14 00:04:37;;;;;;;5.40;3.65;;;;;;;;;;1687165;83;21049;-61
2022/09/14 00:07:03;;;;;;;5.58;3.33;;;;;;;;;;1662728;86;21052;-61
2022/09/14 00:09:30;;;;;;;5.92;3.55;;;;;;;;;;1663802;86;21102;-61
2022/09/14 00:11:56;;;;;;;7.35;3.55;;;;;;;;;;1657672;85;21584;-61
2022/09/14 00:14:22;;;;;;;4.87;3.77;;;;;;;;;;1662453;85;21630;-61
2022/09/14 00:16:49;;;;;;;6.62;3.87;;;;;;;;;;1651549;86;21538;-61
2022/09/14 00:19:17;;;;;;;6.67;3.65;;;;;;;;;;1654654;86;21034;-61
2022/09/14 00:21:44;;;;;;;8.48;3.70;;;;;;;;;;1659122;86;21079;-61
2022/09/14 00:24:10;;;;;;;5.72;3.75;;;;;;;;;;1667403;85;21026;-61
2022/09/14 00:26:36;;;;;;;7.45;3.90;;;;;;;;;;1658647;86;21532;-61
2022/09/14 00:29:03;;;;;;;5.40;3.47;;;;;;;;;;1656904;86;21109;-60
2022/09/14 00:31:31;;;;;;;7.25;3.50;;;;;;;;;;1655568;86;21065;-62
2022/09/14 00:33:57;;;;;;;5.10;3.60;;;;;;;;;;1656641;85;21031;-61
2022/09/14 00:36:25;;;;;;;6.08;3.37;;;;;;;;;;1706231;83;21019;-61
2022/09/14 00:38:51;;;;;;;4.20;3.42;;;;;;;;;;1701161;83;21521;-61
2022/09/14 00:41:19;;;;;;;4.20;3.20;;;;;;;;;;1704120;83;21021;-61
2022/09/14 00:44:05;;;;;;;4.70;3.50;;;;;;;;;;1710046;82;21552;-61
2022/09/14 00:46:49;;;;;;;6.28;3.90;;;;;;;;;;1703929;83;21045;-61
2022/09/14 00:49:16;;;;;;;4.75;3.42;;;;;;;;;;1701453;83;20978;-60
2022/09/14 00:51:44;;;;;;;4.00;3.30;;;;;;;;;;1704797;83;21029;-60
2022/09/14 00:54:10;;;;;;;5.75;3.98;;;;;;;;;;1705884;82;21045;-60
2022/09/14 00:56:37;;;;;;;5.47;3.80;;;;;;;;;;1700688;83;21049;-60
2022/09/14 00:59:05;;;;;;;7.35;3.40;;;;;;;;;;1703309;83;21053;-61
2022/09/14 01:04:21;;;;;;;4.90;3.52;;;;;;;;;;1764158;78;21590;-61
2022/09/14 01:07:06;;;;;;;6.00;3.47;;;;;;;;;;1757901;81;21051;-60
2022/09/14 01:09:52;;;;;;;5.00;3.27;;;;;;;;;;1751237;81;21040;-60
2022/09/14 01:12:20;;;;;;;7.35;3.75;;;;;;;;;;1749163;81;20992;-61
2022/09/14 01:14:49;;;;;;;5.05;3.62;;;;;;;;;;1751812;81;21051;-60
2022/09/14 01:17:17;;;;;;;4.08;3.05;;;;;;;;;;1749276;80;21026;-60
2022/09/14 01:19:57;;;;;;;4.62;3.10;;;;;;;;;;1747699;81;21015;-60
2022/09/14 01:22:24;;;;;;;4.60;3.42;;;;;;;;;;1751340;81;21046;-59
2022/09/14 01:24:53;;;;;;;6.50;3.22;;;;;;;;;;1715613;83;21603;-60
2022/09/14 01:27:24;;;;;;;6.08;3.55;;;;;;;;;;1717811;83;21029;-59
2022/09/14 01:29:58;;;;;;;3.60;3.00;;;;;;;;;;1719511;83;21056;-63
2022/09/14 01:32:26;;;;;;;6.05;3.75;;;;;;;;;;1692785;84;21048;-60
2022/09/14 01:34:58;;;;;;;3.67;3.10;;;;;;;;;;1712300;83;21100;-59
2022/09/14 01:37:29;;;;;;;4.75;3.42;;;;;;;;;;1719677;83;21044;-60
2022/09/14 01:40:00;;;;;;;5.40;3.35;;;;;;;;;;1716968;83;21045;-60
2022/09/14 01:42:26;;;;;;;5.37;3.62;;;;;;;;;;1718925;83;21037;-61
2022/09/14 01:44:54;;;;;;;4.15;3.22;;;;;;;;;;1719873;83;21033;-61
2022/09/14 01:47:24;;;;;;;4.78;3.72;;;;;;;;;;1718753;83;21017;-60
2022/09/14 01:49:59;;;;;;;5.45;3.55;;;;;;;;;;1718014;83;21091;-60
2022/09/14 01:52:30;;;;;;;6.92;3.95;;;;;;;;;;1720205;83;21583;-61
2022/09/14 01:54:58;;;;;;;4.40;3.35;;;;;;;;;;1716224;83;21041;-61
2022/09/14 01:57:43;;;;;;;4.50;3.50;;;;;;;;;;1718042;83;21040;-60
2022/09/14 02:00:10;;;;;;;7.53;3.20;;;;;;;;;;1718323;83;21550;-60
2022/09/14 02:02:38;;;;;;;5.22;3.60;;;;;;;;;;1720516;83;21367;-61
2022/09/14 02:05:08;;;;;;;6.30;3.80;;;;;;;;;;1712317;83;21080;-60
2022/09/14 02:07:35;;;;;;;5.70;3.98;;;;;;;;;;1705379;82;21013;-62
2022/09/14 02:10:02;;;;;;;5.22;4.22;;;;;;;;;;1703700;84;21062;-61
2022/09/14 02:12:28;;;;;;;5.40;3.90;;;;;;;;;;1704301;84;21118;-61
2022/09/14 02:14:54;;;;;;;5.47;4.15;;;;;;;;;;1703100;84;21560;-61
2022/09/14 02:17:21;;;;;;;5.30;3.77;;;;;;;;;;1704462;82;21059;-61
2022/09/14 02:19:49;;;;;;;5.03;3.85;;;;;;;;;;1658562;86;21029;-61
2022/09/14 02:22:15;;;;;;;4.22;3.42;;;;;;;;;;1658690;86;21097;-61
2022/09/14 02:24:42;;;;;;;6.72;3.40;;;;;;;;;;1655245;86;21062;-61
2022/09/14 02:27:08;;;;;;;6.72;3.50;;;;;;;;;;1654929;85;21081;-60
2022/09/14 02:29:34;;;;;;;4.65;3.50;;;;;;;;;;1654815;86;21062;-60
2022/09/14 02:32:02;;;;;;;5.20;3.62;;;;;;;;;;1657560;86;22012;-59
2022/09/14 02:34:33;;;;;;;5.50;3.72;;;;;;;;;;1701447;84;21483;-59
2022/09/14 02:37:16;;;;;;;4.92;3.60;;;;;;;;;;1657434;86;22099;-61
2022/09/14 02:39:44;;;;;;;5.35;3.02;;;;;;;;;;1614493;87;21070;-60
2022/09/14 02:42:12;;;;;;;3.92;3.20;;;;;;;;;;1683414;84;21113;-60
2022/09/14 02:44:40;;;;;;;5.42;3.20;;;;;;;;;;1699965;84;21034;-60
2022/09/14 02:47:11;;;;;;;6.40;3.70;;;;;;;;;;1705087;83;21072;-60
2022/09/14 02:49:58;;;;;;;4.37;3.17;;;;;;;;;;1696957;84;21620;-60
2022/09/14 02:52:28;;;;;;;5.17;3.52;;;;;;;;;;1700625;84;21119;-61
2022/09/14 02:55:08;;;;;;;5.40;3.58;;;;;;;;;;1702986;84;21041;-61
2022/09/14 02:57:53;;;;;;;5.75;3.40;;;;;;;;;;1705830;83;20997;-60
2022/09/14 03:00:19;;;;;;;4.60;3.40;;;;;;;;;;1656756;86;21093;-59
2022/09/14 03:02:45;;;;;;;4.58;3.58;;;;;;;;;;1703180;84;21176;-59
2022/09/14 03:05:12;;;;;;;3.98;3.08;;;;;;;;;;1709950;83;21603;-59
2022/09/14 03:07:39;;;;;;;4.25;2.95;;;;;;;;;;1718453;82;21072;-60
2022/09/14 03:10:06;;;;;;;6.20;3.33;;;;;;;;;;1718703;83;21143;-60
2022/09/14 03:12:32;;;;;;;5.12;3.35;;;;;;;;;;1684149;85;21009;-60
2022/09/14 03:14:58;;;;;;;4.87;3.10;;;;;;;;;;1661944;85;21022;-60
2022/09/14 03:17:26;;;;;;;5.58;3.72;;;;;;;;;;1693337;83;21105;-60
2022/09/14 03:19:52;;;;;;;6.03;3.62;;;;;;;;;;1677925;84;22381;-59
2022/09/14 03:22:18;;;;;;;6.65;3.52;;;;;;;;;;1691275;85;20991;-60
2022/09/14 03:24:45;;;;;;;5.12;3.50;;;;;;;;;;1691397;85;21564;-59
2022/09/14 03:27:12;;;;;;;4.53;3.33;;;;;;;;;;1676351;83;21124;-60
2022/09/14 03:29:38;;;;;;;5.03;3.60;;;;;;;;;;1642979;87;21051;-60
2022/09/14 03:32:04;;;;;;;4.20;3.37;;;;;;;;;;1717485;83;21064;-60
2022/09/14 03:34:30;;;;;;;4.05;3.25;;;;;;;;;;1680447;85;21042;-60
2022/09/14 03:36:56;;;;;;;4.60;3.22;;;;;;;;;;1680485;85;22262;-60
2022/09/14 03:39:23;;;;;;;6.42;3.50;;;;;;;;;;1692700;84;21106;-61
2022/09/14 03:41:49;;;;;;;5.22;3.35;;;;;;;;;;1691392;85;21051;-60
2022/09/14 03:44:15;;;;;;;5.85;3.17;;;;;;;;;;1685433;85;21109;-60
2022/09/14 03:46:43;;;;;;;3.87;3.17;;;;;;;;;;1689490;85;21033;-60
2022/09/14 03:49:09;;;;;;;5.03;2.98;;;;;;;;;;1680069;85;21541;-60
2022/09/14 03:51:35;;;;;;;4.62;3.60;;;;;;;;;;1689887;85;21019;-61
2022/09/14 03:54:01;;;;;;;4.30;3.15;;;;;;;;;;1675958;84;21066;-61
2022/09/14 03:56:28;;;;;;;5.05;3.15;;;;;;;;;;1691852;83;21106;-59
2022/09/14 03:58:54;;;;;;;5.15;3.40;;;;;;;;;;1688464;85;21105;-62
2022/09/14 04:01:21;;;;;;;4.62;3.27;;;;;;;;;;1676634;84;21100;-60
2022/09/14 04:03:48;;;;;;;4.22;2.95;;;;;;;;;;1637186;87;21108;-60
2022/09/14 04:06:15;;;;;;;5.30;3.33;;;;;;;;;;1704224;82;21524;-60
2022/09/14 04:08:42;;;;;;;4.58;3.10;;;;;;;;;;1679826;85;21037;-59
2022/09/14 04:11:09;;;;;;;4.25;3.15;;;;;;;;;;1689763;85;20999;-61
2022/09/14 04:13:36;;;;;;;4.12;3.17;;;;;;;;;;1690813;83;21021;-59
2022/09/14 04:16:02;;;;;;;5.45;3.67;;;;;;;;;;1691939;83;21026;-60
2022/09/14 04:18:28;;;;;;;2.92;2.40;;;;;;;;;;1675859;85;21105;-60
2022/09/14 04:20:55;;;;;;;3.58;2.80;;;;;;;;;;1675316;84;21656;-62
2022/09/14 04:23:21;;;;;;;4.15;2.70;;;;;;;;;;1674597;83;21033;-62
2022/09/14 04:25:48;;;;;;;3.35;2.80;;;;;;;;;;1688117;85;21053;-61
2022/09/14 04:28:14;;;;;;;3.55;2.80;;;;;;;;;;1679708;85;21014;-61
2022/09/14 04:30:40;;;;;;;4.17;2.95;;;;;;;;;;1690518;85;21034;-62
2022/09/14 04:33:06;;;;;;;3.80;3.10;;;;;;;;;;1679244;83;21032;-62
2022/09/14 04:35:32;;;;;;;3.75;2.90;;;;;;;;;;1638006;87;21111;-62
2022/09/14 04:37:59;;;;;;;5.45;3.12;;;;;;;;;;1692044;85;21119;-61
2022/09/14 04:40:27;;;;;;;3.27;2.65;;;;;;;;;;1691081;85;21061;-62
2022/09/14 04:42:53;;;;;;;4.15;3.08;;;;;;;;;;1675745;85;21058;-62
2022/09/14 04:45:20;;;;;;;5.05;2.98;;;;;;;;;;1668204;85;21121;-62
2022/09/14 04:47:46;;;;;;;4.80;2.90;;;;;;;;;;1640751;87;21030;-61
2022/09/14 04:50:12;;;;;;;4.85;3.17;;;;;;;;;;1689042;85;21548;-61
2022/09/14 04:52:38;;;;;;;3.42;2.45;;;;;;;;;;1673791;84;21038;-61
2022/09/14 04:55:06;;;;;;;3.47;2.90;;;;;;;;;;1689619;85;20979;-62
2022/09/14 04:57:32;;;;;;;4.80;3.50;;;;;;;;;;1676004;85;21049;-62
2022/09/14 04:59:58;;;;;;;5.45;3.10;;;;;;;;;;1685129;85;21093;-61
2022/09/14 05:02:25;;;;;;;4.50;3.15;;;;;;;;;;1689953;83;21010;-60
2022/09/14 05:04:52;;;;;;;5.78;3.12;;;;;;;;;;1715923;83;21043;-62
2022/09/14 05:07:18;;;;;;;5.28;3.20;;;;;;;;;;1702598;83;20998;-61
2022/09/14 05:09:45;;;;;;;4.60;3.12;;;;;;;;;;1705072;83;21045;-61
2022/09/14 05:12:11;;;;;;;4.12;3.10;;;;;;;;;;1700047;83;21035;-62
2022/09/14 05:14:38;;;;;;;4.75;3.35;;;;;;;;;;1701729;83;21501;-62
2022/09/14 05:17:04;;;;;;;6.10;3.30;;;;;;;;;;1703832;83;21035;-62
2022/09/14 05:19:30;;;;;;;4.62;3.12;;;;;;;;;;1699308;83;21009;-62
2022/09/14 05:21:56;;;;;;;5.47;3.62;;;;;;;;;;1703893;83;20999;-62
2022/09/14 05:24:22;;;;;;;4.33;3.47;;;;;;;;;;1696889;83;21642;-62
2022/09/14 05:26:50;;;;;;;4.10;3.20;;;;;;;;;;1708752;83;21032;-61
2022/09/14 05:29:17;;;;;;;4.42;3.47;;;;;;;;;;1696794;83;21060;-62
2022/09/14 05:31:44;;;;;;;3.37;2.70;;;;;;;;;;1668271;85;21049;-61
2022/09/14 05:34:10;;;;;;;5.20;3.30;;;;;;;;;;1671035;85;21073;-61
2022/09/14 05:36:37;;;;;;;4.28;3.10;;;;;;;;;;1668083;85;21074;-62
2022/09/14 05:39:03;;;;;;;4.78;3.33;;;;;;;;;;1669499;85;21108;-61
2022/09/14 05:41:30;;;;;;;5.62;2.85;;;;;;;;;;1666000;85;21044;-61
2022/09/14 05:43:57;;;;;;;4.25;3.27;;;;;;;;;;1671533;85;21069;-61
2022/09/14 05:46:23;;;;;;;4.47;3.02;;;;;;;;;;1633174;87;20982;-61
2022/09/14 05:48:50;;;;;;;4.80;3.12;;;;;;;;;;1629218;86;21061;-61
2022/09/14 05:51:17;;;;;;;6.50;4.40;;;;;;;;;;1633398;87;21018;-61
2022/09/14 05:53:48;;;;;;;5.60;3.77;;;;;;;;;;1645726;87;21006;-61
2022/09/14 05:56:14;;;;;;;4.25;3.33;;;;;;;;;;1643022;86;21053;-62
2022/09/14 05:58:41;;;;;;;4.65;3.42;;;;;;;;;;1642994;87;21090;-61
2022/09/14 06:01:12;;;;;;;6.90;3.27;;;;;;;;;;1674871;85;21493;-62
2022/09/14 06:03:38;;;;;;;4.92;3.42;;;;;;;;;;1670989;84;21092;-62
2022/09/14 06:06:04;;;;;;;5.22;3.37;;;;;;;;;;1686519;83;21009;-61
2022/09/14 06:08:30;;;;;;;4.30;2.83;;;;;;;;;;1722083;83;21009;-61
2022/09/14 06:10:58;;;;;;;3.42;2.62;;;;;;;;;;1729610;81;20997;-61
2022/09/14 06:13:24;;;;;;;4.55;3.40;;;;;;;;;;1692109;83;21548;-61
2022/09/14 06:15:51;;;;;;;4.08;3.20;;;;;;;;;;1701184;83;21017;-61
2022/09/14 06:18:17;;;;;;;4.97;3.40;;;;;;;;;;1714285;84;21049;-61
2022/09/14 06:20:50;;;;;;;6.05;5.45;;;;;;;;;;1715636;82;21018;-62
2022/09/14 06:23:17;;;;;;;4.83;3.05;;;;;;;;;;1717574;82;21020;-61
2022/09/14 06:25:43;;;;;;;4.12;2.90;;;;;;;;;;1699551;84;21045;-60
2022/09/14 06:28:09;;;;;;;5.47;3.00;;;;;;;;;;1699709;84;21521;-61
2022/09/14 06:30:35;;;;;;;4.00;3.02;;;;;;;;;;1701197;83;21084;-61
2022/09/14 06:33:03;;;;;;;6.37;3.10;;;;;;;;;;1701746;83;21061;-61
2022/09/14 06:35:30;;;;;;;4.97;3.02;;;;;;;;;;1700382;82;21656;-61
2022/09/14 06:37:56;;;;;;;3.80;2.83;;;;;;;;;;1705976;84;21219;-61
2022/09/14 06:40:22;;;;;;;4.33;3.20;;;;;;;;;;1707319;84;21060;-61
2022/09/14 06:42:48;;;;;;;3.30;2.80;;;;;;;;;;1707967;84;21064;-60
2022/09/14 06:45:14;;;;;;;4.22;2.85;;;;;;;;;;1686139;83;21072;-61
2022/09/14 06:47:41;;;;;;;3.58;2.70;;;;;;;;;;1686351;85;21041;-61
2022/09/14 06:50:08;;;;;;;3.62;3.12;;;;;;;;;;1698578;84;21080;-62
2022/09/14 06:52:37;;;;;;;3.40;2.75;;;;;;;;;;1698001;84;21082;-60
2022/09/14 06:55:04;;;;;;;3.72;2.95;;;;;;;;;;1697596;82;21015;-60
2022/09/14 06:57:30;;;;;;;3.80;2.80;;;;;;;;;;1687211;83;21029;-61
2022/09/14 06:59:56;;;;;;;3.30;2.50;;;;;;;;;;1698734;82;22235;-61
2022/09/14 07:02:22;;;;;;;3.17;2.60;;;;;;;;;;1698733;82;21058;-61
2022/09/14 07:04:48;;;;;;;3.33;2.70;;;;;;;;;;1698190;83;21072;-60
2022/09/14 07:07:16;;;;;;;4.90;2.80;;;;;;;;;;1704188;83;21503;-60
2022/09/14 07:09:42;;;;;;;3.27;2.67;;;;;;;;;;1696527;83;21052;-61
2022/09/14 07:12:10;;;;;;;4.03;2.72;;;;;;;;;;1663125;85;21065;-61
2022/09/14 07:14:38;;;;;;;3.95;2.85;;;;;;;;;;1666041;85;21017;-60
2022/09/14 07:17:04;;;;;;;3.35;2.67;;;;;;;;;;1660978;85;21050;-60
2022/09/14 07:19:30;;;;;;;4.62;2.85;;;;;;;;;;1657712;85;21043;-61
2022/09/14 07:21:57;;;;;;;3.62;2.80;;;;;;;;;;1673670;85;21055;-61
2022/09/14 07:24:23;;;;;;;3.37;2.50;;;;;;;;;;1677216;85;21105;-62
2022/09/14 07:26:50;;;;;;;3.35;2.58;;;;;;;;;;1662809;85;21554;-62
2022/09/14 07:29:17;;;;;;;3.20;2.75;;;;;;;;;;1658375;85;21088;-62
2022/09/14 07:31:45;;;;;;;3.98;2.70;;;;;;;;;;1665023;85;21052;-62
2022/09/14 07:34:11;;;;;;;3.25;2.40;;;;;;;;;;1667624;85;21000;-62
2022/09/14 07:36:37;;;;;;;3.27;2.50;;;;;;;;;;1678695;85;21040;-62
2022/09/14 07:39:04;;;;;;;3.87;2.37;;;;;;;;;;1668218;85;21096;-63
2022/09/14 07:41:32;;;;;;;3.95;2.50;;;;;;;;;;1654042;85;21579;-61
2022/09/14 07:43:59;;;;;;;3.37;2.47;;;;;;;;;;1657699;85;21068;-62
2022/09/14 07:46:27;;;;;;;3.95;2.55;;;;;;;;;;1658904;85;21032;-62
2022/09/14 07:48:57;;;;;;;3.15;2.50;;;;;;;;;;1672231;85;21072;-62
2022/09/14 07:51:23;;;;;;;4.30;2.45;;;;;;;;;;1668332;85;21060;-61
2022/09/14 07:53:50;;;;;;;2.87;2.47;;;;;;;;;;1666567;85;21067;-61
2022/09/14 07:56:16;;;;;;;2.90;2.30;;;;;;;;;;1675657;85;21055;-61
2022/09/14 07:58:43;;;;;;;3.67;2.30;;;;;;;;;;1661395;85;21024;-62
2022/09/14 08:01:13;;;;;;;2.70;2.17;;;;;;;;;;1668726;84;21120;-62
2022/09/14 08:03:40;;;;;;;3.12;2.40;;;;;;;;;;1676608;85;21057;-62
2022/09/14 08:06:08;;;;;;;2.70;2.22;;;;;;;;;;1682538;83;20997;-62
2022/09/14 08:08:34;;;;;;;4.15;2.45;;;;;;;;;;1684562;85;21041;-62
2022/09/14 08:11:09;;;;;;;2.20;2.00;;;;;;;;;;1682622;83;21039;-62
2022/09/14 08:13:40;;;;;;;2.45;2.10;;;;;;;;;;1700771;84;21501;-62
2022/09/14 08:16:06;;;;;;;2.83;2.33;;;;;;;;;;1693658;83;21065;-62
2022/09/14 08:18:34;;;;;;;2.52;2.20;;;;;;;;;;1677378;83;22431;-61
2022/09/14 08:21:10;;;;;;;2.37;1.98;;;;;;;;;;1704160;82;21135;-62
2022/09/14 08:23:37;;;;;;;3.00;2.17;;;;;;;;;;1702156;84;20993;-61
2022/09/14 08:26:08;;;;;;;3.08;1.90;;;;;;;;;;1703038;84;21052;-63
2022/09/14 08:28:35;;;;;;;2.75;1.90;;;;;;;;;;1695063;82;21069;-63
2022/09/14 08:31:05;;;;;;;4.08;2.80;;;;;;;;;;1700113;84;21060;-62
2022/09/14 08:33:32;;;;;;;3.67;2.60;;;;;;;;;;1697845;82;21025;-63
2022/09/14 08:35:58;;;;;;;3.58;2.10;;;;;;;;;;1697069;84;21045;-62
2022/09/14 08:38:24;;;;;;;3.92;2.27;;;;;;;;;;1699804;83;21022;-61
2022/09/14 08:40:51;;;;;;;10.48;2.20;;;;;;;;;;1677727;83;21073;-62
2022/09/14 08:43:17;;;;;;;2.85;2.17;;;;;;;;;;1678628;85;21128;-62
2022/09/14 08:45:43;;;;;;;2.65;2.22;;;;;;;;;;1697106;83;21009;-63
2022/09/14 08:48:11;;;;;;;2.60;2.15;;;;;;;;;;1699223;84;22411;-62
2022/09/14 08:50:37;;;;;;;2.70;2.00;;;;;;;;;;1696760;84;21042;-61
2022/09/14 08:53:04;;;;;;;2.37;2.05;;;;;;;;;;1678815;83;22337;-62
2022/09/14 08:55:35;;;;;;;2.65;2.20;;;;;;;;;;1680138;85;21060;-62
2022/09/14 08:58:06;;;;;;;2.52;2.10;;;;;;;;;;1699476;82;21063;-61
2022/09/14 09:00:34;;;;;;;2.80;1.80;;;;;;;;;;1715528;82;21070;-61
2022/09/14 09:03:21;;;;;;;2.17;1.90;;;;;;;;;;1713773;82;21058;-61
2022/09/14 09:05:55;;;;;;;2.25;1.87;;;;;;;;;;1681217;85;21553;-63
2022/09/14 09:08:29;;;;;;;2.25;2.05;;;;;;;;;;1701939;82;21083;-62
2022/09/14 09:10:55;;;;;;;2.95;2.33;;;;;;;;;;1647259;85;21509;-60
2022/09/14 09:13:23;;;;;;;2.70;2.02;;;;;;;;;;1677457;84;21057;-61
2022/09/14 09:15:50;;;;;;;2.12;1.85;;;;;;;;;;1655084;86;21033;-60
2022/09/14 09:18:35;;;;;;;2.47;2.00;;;;;;;;;;1702193;84;21077;-61
2022/09/14 09:21:06;;;;;;;2.20;1.98;;;;;;;;;;1695534;84;21111;-61
2022/09/14 09:23:32;;;;;;;4.55;2.22;;;;;;;;;;1653884;85;21105;-62
2022/09/14 09:26:18;;;;;;;3.58;2.35;;;;;;;;;;1650384;85;21117;-61
2022/09/14 09:28:51;;;;;;;2.80;2.20;;;;;;;;;;1691789;83;21108;-62
2022/09/14 09:31:19;;;;;;;3.10;2.20;;;;;;;;;;1700016;82;21067;-62
2022/09/14 09:33:48;;;;;;;3.60;2.42;;;;;;;;;;1700254;84;21125;-62
2022/09/14 09:36:16;;;;;;;3.08;2.42;;;;;;;;;;1702473;84;21104;-67
2022/09/14 09:38:43;;;;;;;3.70;2.50;;;;;;;;;;1692033;84;21030;-68
2022/09/14 09:41:20;;;;;;;4.10;2.50;;;;;;;;;;1700697;82;21416;-68
2022/09/14 09:43:57;;;;;;;3.62;2.47;;;;;;;;;;1698709;84;21045;-68
2022/09/14 09:46:24;;;;;;;5.12;2.58;;;;;;;;;;1695815;84;20986;-68
2022/09/14 09:48:50;;;;;;;3.87;2.60;;;;;;;;;;1703404;83;21064;-68
2022/09/14 09:51:25;;;;;;;3.65;2.50;;;;;;;;;;1698233;82;21663;-63
2022/09/14 09:53:52;;;;;;;4.45;2.60;;;;;;;;;;1697998;82;22384;-63
2022/09/14 09:56:19;;;;;;;4.28;2.60;;;;;;;;;;1697847;84;21716;-63
2022/09/14 09:58:50;;;;;;;3.60;2.70;;;;;;;;;;1699176;82;21028;-63
2022/09/14 10:01:18;;;;;;;3.98;2.52;;;;;;;;;;1661243;85;21092;-63
2022/09/14 10:03:50;;;;;;;3.45;2.47;;;;;;;;;;1696468;82;21548;-64
2022/09/14 10:06:14;;;;;;;3.08;2.35;;;;;;;;;;1696574;84;21072;-64
2022/09/14 10:08:42;;;;;;;3.75;2.65;;;;;;;;;;1683653;84;21582;-63
2022/09/14 10:11:27;;;;;;;4.47;2.37;;;;;;;;;;1672101;85;21033;-63
2022/09/14 10:13:53;;;;;;;5.62;2.83;;;;;;;;;;1688227;83;21069;-63
2022/09/14 10:16:19;;;;;;;5.42;2.83;;;;;;;;;;1685416;83;21042;-62
2022/09/14 10:18:50;;;;;;;3.30;2.58;;;;;;;;;;1688427;83;21034;-63
2022/09/14 10:21:15;;;;;;;4.15;2.85;;;;;;;;;;1689594;83;21052;-63
2022/09/14 10:23:41;;;;;;;4.47;2.90;;;;;;;;;;1687766;85;21210;-62
2022/09/14 10:26:15;;;;;;;4.90;3.17;;;;;;;;;;1684898;83;21072;-62
2022/09/14 10:28:45;;;;;;;5.90;3.40;;;;;;;;;;1691841;83;21019;-63
2022/09/14 10:31:18;;;;;;;4.37;2.77;;;;;;;;;;1678952;85;21101;-64
2022/09/14 10:33:45;;;;;;;4.37;2.65;;;;;;;;;;1690926;83;21100;-64
2022/09/14 10:36:13;;;;;;;4.60;3.02;;;;;;;;;;1689341;83;21093;-63
2022/09/14 10:38:41;;;;;;;6.47;3.37;;;;;;;;;;1674146;85;21187;-65
2022/09/14 10:41:15;;;;;;;5.83;3.10;;;;;;;;;;1685653;85;21089;-65
2022/09/14 10:43:44;;;;;;;3.90;2.80;;;;;;;;;;1687014;85;21541;-65
2022/09/14 10:48:45;;;;;;;3.90;2.70;;;;;;;;;;1802338;78;23475;-65
2022/09/14 10:51:16;;;;;;;3.80;3.10;;;;;;;;;;1762019;80;21074;-65
2022/09/14 10:53:50;;;;;;;4.05;3.10;;;;;;;;;;1757161;81;21163;-65
2022/09/14 10:56:23;;;;;;;4.90;3.33;;;;;;;;;;1759691;81;21052;-65
2022/09/14 10:59:03;;;;;;;4.42;3.00;;;;;;;;;;1760658;80;21570;-64
2022/09/14 11:01:50;;;;;;;5.40;3.30;;;;;;;;;;1730868;81;21069;-65
2022/09/14 11:04:38;;;;;;;9.10;5.75;;;;;;;;;;1728751;81;21058;-64
2022/09/14 11:07:11;;;;;;;5.85;3.98;;;;;;;;;;1726885;82;21555;-65
2022/09/14 11:09:39;;;;;;;4.90;3.52;;;;;;;;;;1729194;81;21041;-65
2022/09/14 11:12:07;;;;;;;4.17;3.52;;;;;;;;;;1723640;81;21047;-64
2022/09/14 11:14:35;;;;;;;4.72;3.92;;;;;;;;;;1729106;82;21050;-64
2022/09/14 11:17:15;;;;;;;6.17;4.10;;;;;;;;;;1726648;81;21056;-63
2022/09/14 11:19:56;;;;;;;6.80;4.47;;;;;;;;;;1730186;81;21060;-63
2022/09/14 11:22:33;;;;;;;5.97;3.92;;;;;;;;;;1689925;83;21036;-65
2022/09/14 11:25:07;;;;;;;4.78;3.65;;;;;;;;;;1731114;81;21005;-64
2022/09/14 11:27:41;;;;;;;4.25;3.67;;;;;;;;;;1730055;81;21099;-64
2022/09/14 11:30:12;;;;;;;5.50;4.20;;;;;;;;;;1727109;81;21045;-68
2022/09/14 11:32:39;;;;;;;5.62;4.00;;;;;;;;;;1729018;81;21084;-68
2022/09/14 11:35:10;;;;;;;8.43;6.17;;;;;;;;;;1728421;82;21087;-68
2022/09/14 11:37:53;;;;;;;6.53;5.08;;;;;;;;;;1731018;81;21101;-67
2022/09/14 11:40:21;;;;;;;6.00;4.50;;;;;;;;;;1727610;81;20961;-69
2022/09/14 11:42:58;;;;;;;7.42;4.58;;;;;;;;;;1731749;81;21032;-67
2022/09/14 11:45:26;;;;;;;4.97;3.87;;;;;;;;;;1726509;83;21011;-67
2022/09/14 11:48:00;;;;;;;6.17;4.10;;;;;;;;;;1729998;83;21517;-67
2022/09/14 11:50:28;;;;;;;5.12;4.25;;;;;;;;;;1719620;82;21031;-67
2022/09/14 11:52:59;;;;;;;5.72;4.20;;;;;;;;;;1730257;81;21602;-67
2022/09/14 11:55:26;;;;;;;7.25;5.62;;;;;;;;;;1727143;81;20970;-67
2022/09/14 11:57:53;;;;;;;7.97;5.60;;;;;;;;;;1731285;83;21090;-68
2022/09/14 12:00:21;;;;;;;6.35;4.67;;;;;;;;;;1725664;82;21131;-68
2022/09/14 12:02:58;;;;;;;5.33;4.47;;;;;;;;;;1727986;81;21151;-66
2022/09/14 12:05:26;;;;;;;7.12;4.75;;;;;;;;;;1727914;82;21480;-66
2022/09/14 12:07:59;;;;;;;6.47;4.62;;;;;;;;;;1732701;82;21056;-67
2022/09/14 12:10:25;;;;;;;4.72;3.95;;;;;;;;;;1727658;83;21073;-67
2022/09/14 12:12:56;;;;;;;6.40;4.58;;;;;;;;;;1730795;82;21042;-67
2022/09/14 12:15:27;;;;;;;6.20;4.97;;;;;;;;;;1731101;82;20981;-67
2022/09/14 12:18:06;;;;;;;5.80;4.72;;;;;;;;;;1730772;83;21052;-66
2022/09/14 12:20:42;;;;;;;5.78;4.72;;;;;;;;;;1729170;83;21101;-67
2022/09/14 12:23:13;;;;;;;6.35;4.92;;;;;;;;;;1730907;83;21421;-66
2022/09/14 12:25:41;;;;;;;6.17;4.75;;;;;;;;;;1731100;83;21099;-67
2022/09/14 12:28:27;;;;;;;5.65;4.78;;;;;;;;;;1729403;82;21079;-66
2022/09/14 12:30:55;;;;;;;5.83;4.55;;;;;;;;;;1694149;84;21074;-65
2022/09/14 12:33:33;;;;;;;7.47;5.20;;;;;;;;;;1662793;86;21100;-66
2022/09/14 12:36:11;;;;;;;5.90;4.60;;;;;;;;;;1695910;84;21480;-66
2022/09/14 12:38:41;;;;;;;6.08;4.72;;;;;;;;;;1696226;84;21609;-66
2022/09/14 12:41:15;;;;;;;5.92;4.15;;;;;;;;;;1695927;84;21019;-66
2022/09/14 12:43:47;;;;;;;5.97;4.67;;;;;;;;;;1675400;85;21026;-67
2022/09/14 12:46:17;;;;;;;7.55;4.62;;;;;;;;;;1695784;84;21016;-67
2022/09/14 12:48:54;;;;;;;6.37;4.80;;;;;;;;;;1688074;84;21533;-67
2022/09/14 12:51:25;;;;;;;6.70;4.53;;;;;;;;;;1689465;85;21032;-67
2022/09/14 12:53:53;;;;;;;5.15;4.15;;;;;;;;;;1718442;83;21015;-67
2022/09/14 12:56:21;;;;;;;4.67;3.92;;;;;;;;;;1677031;83;21078;-66
2022/09/14 12:58:49;;;;;;;5.55;4.15;;;;;;;;;;1725918;83;21539;-67
2022/09/14 13:01:29;;;;;;;6.55;4.70;;;;;;;;;;1725170;82;21149;-66
2022/09/14 13:03:56;;;;;;;5.85;4.25;;;;;;;;;;1724514;83;21270;-66
2022/09/14 13:06:22;;;;;;;6.70;5.10;;;;;;;;;;1725282;83;21023;-67
2022/09/14 13:08:52;;;;;;;5.95;4.85;;;;;;;;;;1725609;83;21536;-67
2022/09/14 13:11:22;;;;;;;6.67;4.65;;;;;;;;;;1725506;82;21584;-67
2022/09/14 13:13:49;;;;;;;7.40;5.33;;;;;;;;;;1725733;83;21090;-67
2022/09/14 13:16:18;;;;;;;6.55;4.70;;;;;;;;;;1725758;83;21046;-66
2022/09/14 13:18:44;;;;;;;7.70;4.90;;;;;;;;;;1721793;83;21560;-66
2022/09/14 13:21:18;;;;;;;6.37;4.97;;;;;;;;;;1725746;83;21085;-67
2022/09/14 13:23:44;;;;;;;5.53;4.70;;;;;;;;;;1721623;83;21075;-68
2022/09/14 13:26:11;;;;;;;6.05;4.70;;;;;;;;;;1725663;83;21003;-67
2022/09/14 13:28:37;;;;;;;8.18;5.08;;;;;;;;;;1725686;83;21533;-67
2022/09/14 13:31:03;;;;;;;6.72;4.90;;;;;;;;;;1721697;83;21502;-68
2022/09/14 13:33:30;;;;;;;6.62;4.80;;;;;;;;;;1725597;83;21092;-66
2022/09/14 13:36:00;;;;;;;6.67;5.03;;;;;;;;;;1725818;83;20990;-66
2022/09/14 13:38:31;;;;;;;7.53;4.83;;;;;;;;;;1725668;83;21016;-66
2022/09/14 13:41:10;;;;;;;5.80;4.85;;;;;;;;;;1725727;83;21030;-67
2022/09/14 13:43:36;;;;;;;7.12;5.12;;;;;;;;;;1689329;85;21495;-67
2022/09/14 13:46:03;;;;;;;7.50;5.22;;;;;;;;;;1725750;83;21026;-67
2022/09/14 13:48:30;;;;;;;5.97;5.10;;;;;;;;;;1725623;82;21647;-66
2022/09/14 13:50:56;;;;;;;5.78;4.87;;;;;;;;;;1725801;83;21039;-67
2022/09/14 13:53:41;;;;;;;8.68;5.55;;;;;;;;;;1725557;83;21105;-66
2022/09/14 13:56:15;;;;;;;6.28;5.22;;;;;;;;;;1687801;85;21052;-68
2022/09/14 13:58:41;;;;;;;6.95;5.15;;;;;;;;;;1661509;86;21057;-68
2022/09/14 14:01:07;;;;;;;7.40;4.97;;;;;;;;;;1670475;85;21113;-68
2022/09/14 14:03:37;;;;;;;7.72;5.35;;;;;;;;;;1673335;85;21029;-68
2022/09/14 14:06:19;;;;;;;7.10;5.50;;;;;;;;;;1669252;86;20998;-68
2022/09/14 14:08:47;;;;;;;9.23;6.03;;;;;;;;;;1681277;85;21052;-68
2022/09/14 14:11:13;;;;;;;9.00;4.97;;;;;;;;;;1660033;86;21064;-68
2022/09/14 14:13:40;;;;;;;10.25;5.70;;;;;;;;;;1670426;85;21076;-69
2022/09/14 14:16:14;;;;;;;6.62;5.50;;;;;;;;;;1674044;86;21083;-68
2022/09/14 14:18:41;;;;;;;7.75;5.65;;;;;;;;;;1725608;83;20979;-68
2022/09/14 14:21:15;;;;;;;11.20;5.92;;;;;;;;;;1725709;82;21542;-68
2022/09/14 14:23:41;;;;;;;8.60;5.30;;;;;;;;;;1727100;81;21067;-69
2022/09/14 14:26:08;;;;;;;8.53;5.80;;;;;;;;;;1725339;83;21561;-68
2022/09/14 14:28:35;;;;;;;9.93;5.20;;;;;;;;;;1725740;83;20983;-69
2022/09/14 14:31:06;;;;;;;7.53;5.47;;;;;;;;;;1716772;82;20999;-68
2022/09/14 14:33:32;;;;;;;9.25;5.97;;;;;;;;;;1719202;83;21062;-68
2022/09/14 14:35:58;;;;;;;8.80;5.85;;;;;;;;;;1722889;83;21089;-69
2022/09/14 14:38:24;;;;;;;6.40;5.30;;;;;;;;;;1721486;83;21038;-68
2022/09/14 14:40:53;;;;;;;7.10;5.65;;;;;;;;;;1723882;81;22185;-68
2022/09/14 14:43:20;;;;;;;7.72;6.22;;;;;;;;;;1725123;82;21048;-68
2022/09/14 14:45:46;;;;;;;8.98;5.80;;;;;;;;;;1725806;82;21045;-68
2022/09/14 14:48:13;;;;;;;6.17;5.20;;;;;;;;;;1722059;83;21039;-68
2022/09/14 14:50:40;;;;;;;5.70;5.10;;;;;;;;;;1724864;83;21038;-68
2022/09/14 14:53:06;;;;;;;7.22;5.55;;;;;;;;;;1713586;83;21034;-68
2022/09/14 14:55:34;;;;;;;8.10;6.15;;;;;;;;;;1711223;83;21022;-69
2022/09/14 14:58:01;;;;;;;8.18;5.55;;;;;;;;;;1712845;83;21031;-69
2022/09/14 15:00:30;;;;;;;6.60;5.90;;;;;;;;;;1717432;83;21105;-68